Search for airport 
image banner adimage banner adimage banner ad
image banner ad

24PA - Kindelberger Landing Strip

Located in Freedom, United States

ICAO - 24PA, IATA -

Data provided by Airmate  

General information

Coordinates: N40°41'30" W80°10'40"
Elevation is 1140 feet MSL.
Magnetic variation is -08° East
View others Airports in Pennsylvania

Operational data

Special qualification required
Current time UTC:
Current local time:
Weather at : KBVI - Beaver County ( 20 km )
METAR: KBVI 091615Z AUTO 09004KT 4SM RA OVC005 04/03 A2991 RMK AO2 T00380031
TAF: KBVI 091458Z 0915/1012 10007KT 4SM -SHRA OVC015 TEMPO 0915/0918 BKN007 FM091800 08006KT 3SM SHRA OVC008 FM092200 36007KT 4SM -SHRA OVC007 FM100400 35005KT 4SM BR OVC003 FM101000 32005KT P6SM BKN010
View NOTAMs / SUP AIP / TFR affecting this airport [VIEW]
Communications frequencies: [VIEW]

Runways:

RWY identifierQFULength (ft)Width (ft)SurfaceLDA (ft)
091515110GRASS
271515110GRASS

Airport contact information

Address: Freedom United States

Satellite view of 24PA